createdAt,value
2022-08-25T00:01:23.649Z,16.40
2022-08-25T00:03:55.190Z,16.30
2022-08-25T00:06:23.785Z,16.20
2022-08-25T00:08:51.042Z,16.10
2022-08-25T00:11:21.365Z,16.20
2022-08-25T00:13:54.211Z,16.10
2022-08-25T00:16:22.831Z,16.10
2022-08-25T00:18:53.338Z,16.10
2022-08-25T00:21:20.361Z,16.00
2022-08-25T00:23:47.330Z,15.90
2022-08-25T00:26:15.727Z,15.80
2022-08-25T00:28:43.814Z,15.80
2022-08-25T00:31:18.390Z,15.70
2022-08-25T00:33:47.279Z,15.70
2022-08-25T00:36:15.731Z,15.70
2022-08-25T00:38:45.149Z,15.70
2022-08-25T00:41:16.910Z,15.70
2022-08-25T00:43:59.143Z,15.70
2022-08-25T00:46:32.291Z,15.70
2022-08-25T00:49:03.525Z,15.70
2022-08-25T00:51:42.909Z,15.60
2022-08-25T00:54:16.649Z,15.60
2022-08-25T00:56:45.331Z,15.60
2022-08-25T00:59:13.854Z,15.60
2022-08-25T01:01:41.021Z,15.60
2022-08-25T01:04:08.521Z,15.50
2022-08-25T01:06:39.164Z,15.60
2022-08-25T01:09:07.327Z,15.50
2022-08-25T01:11:35.742Z,15.50
2022-08-25T01:14:06.552Z,15.60
2022-08-25T01:16:38.492Z,15.60
2022-08-25T01:19:07.197Z,15.60
2022-08-25T01:21:40.267Z,15.50
2022-08-25T01:24:07.513Z,15.50
2022-08-25T01:26:35.601Z,15.50
2022-08-25T01:29:21.602Z,15.50
2022-08-25T01:31:50.194Z,15.50
2022-08-25T01:34:18.521Z,15.40
2022-08-25T01:36:46.022Z,15.40
2022-08-25T01:39:13.897Z,15.40
2022-08-25T01:41:51.344Z,15.40
2022-08-25T01:44:19.303Z,15.40
2022-08-25T01:46:46.188Z,15.40
2022-08-25T01:49:13.081Z,15.40
2022-08-25T01:51:47.051Z,15.40
2022-08-25T01:54:14.021Z,15.40
2022-08-25T01:56:40.918Z,15.50
2022-08-25T01:59:07.789Z,15.50
2022-08-25T02:01:35.355Z,15.50
2022-08-25T02:04:02.322Z,15.50
2022-08-25T02:06:33.118Z,15.50
2022-08-25T02:09:05.678Z,15.50
2022-08-25T02:11:33.418Z,15.50
2022-08-25T02:14:01.058Z,15.50
2022-08-25T02:16:33.992Z,15.50
2022-08-25T02:19:01.695Z,15.50
2022-08-25T02:21:28.602Z,15.50
2022-08-25T02:23:56.962Z,15.50
2022-08-25T02:26:24.067Z,15.50
2022-08-25T02:28:52.659Z,15.50
2022-08-25T02:31:21.776Z,15.50
2022-08-25T02:33:49.520Z,15.50
2022-08-25T02:36:16.790Z,15.40
2022-08-25T02:38:43.925Z,15.30
2022-08-25T02:41:14.902Z,15.30
2022-08-25T02:43:43.078Z,15.30
2022-08-25T02:46:11.435Z,15.30
2022-08-25T02:48:40.035Z,15.30
2022-08-25T02:51:10.107Z,15.40
2022-08-25T02:53:39.789Z,15.40
2022-08-25T02:56:10.798Z,15.40
2022-08-25T02:58:38.841Z,15.40
2022-08-25T03:01:06.866Z,15.50
2022-08-25T03:03:38.814Z,15.60
2022-08-25T03:06:08.783Z,15.60
2022-08-25T03:08:36.971Z,15.60
2022-08-25T03:11:05.206Z,15.60
2022-08-25T03:13:32.768Z,15.60
2022-08-25T03:16:00.543Z,15.70
2022-08-25T03:18:28.160Z,15.70
2022-08-25T03:20:55.450Z,15.70
2022-08-25T03:23:22.396Z,15.70
2022-08-25T03:26:07.910Z,15.70
2022-08-25T03:28:35.686Z,15.60
2022-08-25T03:31:02.557Z,15.70
2022-08-25T03:33:30.356Z,15.70
2022-08-25T03:35:57.710Z,15.70
2022-08-25T03:38:25.429Z,15.70
2022-08-25T03:40:52.796Z,15.70
2022-08-25T03:43:20.446Z,15.70
2022-08-25T03:45:48.133Z,15.80
2022-08-25T03:48:16.647Z,15.80
2022-08-25T03:50:52.068Z,15.80
2022-08-25T03:53:20.128Z,15.70
2022-08-25T03:55:47.618Z,15.70
2022-08-25T03:58:14.901Z,15.60
2022-08-25T04:00:42.298Z,15.60
2022-08-25T04:03:09.505Z,15.60
2022-08-25T04:05:36.374Z,15.60
2022-08-25T04:08:03.618Z,15.60
2022-08-25T04:10:31.243Z,15.60
2022-08-25T04:12:58.338Z,15.60
2022-08-25T04:15:28.522Z,15.70
2022-08-25T04:17:58.989Z,15.70
2022-08-25T04:20:26.630Z,15.70
2022-08-25T04:22:53.537Z,15.80
2022-08-25T04:25:20.546Z,15.80
2022-08-25T04:27:47.383Z,15.80
2022-08-25T04:30:14.822Z,15.80
2022-08-25T04:32:41.704Z,15.90
2022-08-25T04:35:09.987Z,16.00
2022-08-25T04:37:36.872Z,16.00
2022-08-25T04:40:04.963Z,16.10
2022-08-25T04:42:31.918Z,16.10
2022-08-25T04:44:59.418Z,16.20
2022-08-25T04:47:26.414Z,16.30
2022-08-25T04:49:55.033Z,16.40
2022-08-25T04:52:21.888Z,16.50
2022-08-25T04:54:48.734Z,16.50
2022-08-25T04:57:15.598Z,16.60
2022-08-25T04:59:42.464Z,16.70
2022-08-25T05:02:09.938Z,16.80
2022-08-25T05:04:37.443Z,16.90
2022-08-25T05:07:05.568Z,17.00
2022-08-25T05:09:33.053Z,17.10
2022-08-25T05:12:01.621Z,17.10
2022-08-25T05:14:29.449Z,17.20
2022-08-25T05:16:56.826Z,17.30
2022-08-25T05:19:24.445Z,17.40
2022-08-25T05:21:52.271Z,17.50
2022-08-25T05:24:19.405Z,17.50
2022-08-25T05:26:46.299Z,17.60
2022-08-25T05:29:14.497Z,17.70
2022-08-25T05:31:47.108Z,17.70
2022-08-25T05:34:18.913Z,17.70
2022-08-25T05:36:46.566Z,17.80
2022-08-25T05:39:13.551Z,17.90
2022-08-25T05:41:40.789Z,17.90
2022-08-25T05:44:08.189Z,18.10
2022-08-25T05:46:35.125Z,18.20
2022-08-25T05:49:02.043Z,18.30
2022-08-25T05:51:28.990Z,18.30
2022-08-25T05:53:55.916Z,18.40
2022-08-25T05:56:22.799Z,18.50
2022-08-25T05:58:50.429Z,18.60
2022-08-25T06:01:47.954Z,18.80
2022-08-25T06:04:18.240Z,18.90
2022-08-25T06:06:45.307Z,19.10
2022-08-25T06:09:12.239Z,19.10
2022-08-25T06:11:40.474Z,19.20
2022-08-25T06:14:09.263Z,19.40
2022-08-25T06:16:36.330Z,19.50
2022-08-25T06:19:03.663Z,19.60
2022-08-25T06:21:30.754Z,19.80
2022-08-25T06:23:57.675Z,19.80
2022-08-25T06:26:25.127Z,20.00
2022-08-25T06:28:53.278Z,20.10
2022-08-25T06:31:22.442Z,20.20
2022-08-25T06:33:50.390Z,20.20
2022-08-25T06:36:17.601Z,20.30
2022-08-25T06:38:45.568Z,20.50
2022-08-25T06:41:13.090Z,20.60
2022-08-25T06:43:47.297Z,20.60
2022-08-25T06:46:21.535Z,20.80
2022-08-25T06:48:49.627Z,20.90
2022-08-25T06:51:19.213Z,21.00
2022-08-25T06:53:49.006Z,21.20
2022-08-25T06:56:21.584Z,21.40
2022-08-25T06:58:50.894Z,21.70
2022-08-25T07:01:25.887Z,22.00
2022-08-25T07:03:57.609Z,22.20
2022-08-25T07:06:31.649Z,22.40
2022-08-25T07:08:59.733Z,22.60
2022-08-25T07:11:26.637Z,22.80
2022-08-25T07:13:54.146Z,22.80
2022-08-25T07:16:21.786Z,22.50
2022-08-25T07:18:49.582Z,22.60
2022-08-25T07:21:17.478Z,22.50
2022-08-25T07:23:46.822Z,22.50
2022-08-25T07:26:39.234Z,22.40
2022-08-25T07:29:14.730Z,22.40
2022-08-25T07:31:42.130Z,22.50
2022-08-25T07:34:28.511Z,22.50
2022-08-25T07:36:56.948Z,22.60
2022-08-25T07:39:25.418Z,22.90
2022-08-25T07:41:53.202Z,23.10
2022-08-25T07:44:21.913Z,23.30
2022-08-25T07:46:50.570Z,23.70
2022-08-25T07:49:23.187Z,24.00
2022-08-25T07:52:06.822Z,24.20
2022-08-25T07:54:37.709Z,24.40
2022-08-25T07:57:07.238Z,24.50
2022-08-25T07:59:39.576Z,24.30
2022-08-25T08:02:17.844Z,24.30
2022-08-25T08:04:48.908Z,24.30
2022-08-25T08:07:36.976Z,24.50
2022-08-25T08:10:42.193Z,24.60
2022-08-25T08:12:59.181Z,24.90
2022-08-25T08:15:29.774Z,25.50
2022-08-25T08:17:58.453Z,25.70
2022-08-25T08:20:26.377Z,25.90
2022-08-25T08:22:53.263Z,25.90
2022-08-25T08:25:21.591Z,25.80
2022-08-25T08:27:54.995Z,25.70
2022-08-25T08:30:25.949Z,25.70
2022-08-25T08:33:09.311Z,25.70
2022-08-25T08:35:37.489Z,25.70
2022-08-25T08:38:13.171Z,25.90
2022-08-25T08:41:21.541Z,26.00
2022-08-25T08:43:56.424Z,25.90
2022-08-25T08:46:25.939Z,25.90
2022-08-25T08:49:02.091Z,26.00
2022-08-25T08:51:45.926Z,26.30
2022-08-25T08:54:18.731Z,26.20
2022-08-25T08:56:50.717Z,26.20
2022-08-25T08:59:30.076Z,25.80
2022-08-25T09:02:04.044Z,26.00
2022-08-25T09:04:59.241Z,26.00
2022-08-25T09:07:36.709Z,25.80
2022-08-25T09:10:10.800Z,25.70
2022-08-25T09:12:48.190Z,25.80
2022-08-25T09:15:47.539Z,26.00
2022-08-25T09:18:29.911Z,25.90
2022-08-25T09:21:23.986Z,26.10
2022-08-25T09:24:02.874Z,26.10
2022-08-25T09:27:07.684Z,26.20
2022-08-25T09:29:49.893Z,26.10
2022-08-25T09:32:24.212Z,26.20
2022-08-25T09:34:59.600Z,26.40
2022-08-25T09:37:26.913Z,26.50
2022-08-25T09:39:55.319Z,26.50
2022-08-25T09:42:51.401Z,26.70
2022-08-25T09:45:40.381Z,26.90
2022-08-25T09:48:23.385Z,26.90
2022-08-25T09:50:52.950Z,26.90
2022-08-25T09:53:21.712Z,26.90
2022-08-25T09:56:00.589Z,26.90
2022-08-25T09:58:27.862Z,27.00
2022-08-25T10:01:26.909Z,26.60
2022-08-25T10:04:05.601Z,26.90
2022-08-25T10:06:47.125Z,26.70
2022-08-25T10:09:33.093Z,26.50
2022-08-25T10:12:04.982Z,26.80
2022-08-25T10:14:32.796Z,26.70
2022-08-25T10:17:17.015Z,26.90
2022-08-25T10:19:44.221Z,26.70
2022-08-25T10:22:32.970Z,27.00
2022-08-25T10:25:00.597Z,27.30
2022-08-25T10:27:46.498Z,26.90
2022-08-25T10:30:31.446Z,27.20
2022-08-25T10:33:18.352Z,27.40
2022-08-25T10:36:01.743Z,27.50
2022-08-25T10:38:47.724Z,27.70
2022-08-25T10:41:26.618Z,27.80
2022-08-25T10:44:36.180Z,28.00
2022-08-25T10:47:33.436Z,28.00
2022-08-25T10:50:13.471Z,27.90
2022-08-25T10:53:18.245Z,28.10
2022-08-25T10:55:55.443Z,27.80
2022-08-25T10:58:56.817Z,27.90
2022-08-25T11:01:47.965Z,28.00
2022-08-25T11:04:39.519Z,27.90
2022-08-25T11:07:25.058Z,27.40
2022-08-25T11:09:57.725Z,27.30
2022-08-25T11:12:33.535Z,27.60
2022-08-25T11:15:08.507Z,27.90
2022-08-25T11:17:50.337Z,28.00
2022-08-25T11:20:26.783Z,28.20
2022-08-25T11:23:09.050Z,28.50
2022-08-25T11:25:43.377Z,28.50
2022-08-25T11:28:16.385Z,28.30
2022-08-25T11:30:44.599Z,28.50
2022-08-25T11:33:19.501Z,28.30
2022-08-25T11:36:15.287Z,28.10
2022-08-25T11:39:06.791Z,28.20
2022-08-25T11:41:41.638Z,28.40
2022-08-25T11:44:27.086Z,28.10
2022-08-25T11:47:00.097Z,28.10
2022-08-25T11:49:42.897Z,27.90
2022-08-25T11:52:31.559Z,27.60
2022-08-25T11:55:22.772Z,27.70
2022-08-25T11:57:53.577Z,27.70
2022-08-25T12:00:37.866Z,27.60
2022-08-25T12:03:36.891Z,27.50
2022-08-25T12:06:29.126Z,27.30
2022-08-25T12:09:05.858Z,27.50
2022-08-25T12:11:38.721Z,27.70
2022-08-25T12:14:28.104Z,27.90
2022-08-25T12:16:55.418Z,28.00
2022-08-25T12:19:48.758Z,28.20
2022-08-25T12:22:16.130Z,28.20
2022-08-25T12:24:47.546Z,28.30
2022-08-25T12:27:42.968Z,28.60
2022-08-25T12:30:18.345Z,28.90
2022-08-25T12:33:18.359Z,29.00
2022-08-25T12:36:01.311Z,29.30
2022-08-25T12:38:43.269Z,29.30
2022-08-25T12:41:14.695Z,29.10
2022-08-25T12:43:50.282Z,29.30
2022-08-25T12:46:23.123Z,29.40
2022-08-25T12:49:28.718Z,29.70
2022-08-25T12:52:04.910Z,29.90
2022-08-25T12:54:54.642Z,29.90
2022-08-25T12:57:32.627Z,30.10
2022-08-25T13:00:05.700Z,30.00
2022-08-25T13:03:08.121Z,30.00
2022-08-25T13:05:50.102Z,29.80
2022-08-25T13:08:50.023Z,29.80
2022-08-25T13:11:20.417Z,29.60
2022-08-25T13:14:01.474Z,29.40
2022-08-25T13:16:30.351Z,29.20
2022-08-25T13:19:01.826Z,29.10
2022-08-25T13:21:30.891Z,29.10
2022-08-25T13:24:05.841Z,29.00
2022-08-25T13:26:37.563Z,29.10
2022-08-25T13:29:17.893Z,29.10
2022-08-25T13:31:57.698Z,29.30
2022-08-25T13:34:34.846Z,29.40
2022-08-25T13:37:29.817Z,29.00
2022-08-25T13:40:26.700Z,29.00
2022-08-25T13:43:02.693Z,28.80
2022-08-25T13:45:40.917Z,28.80
2022-08-25T13:48:22.432Z,28.80
2022-08-25T13:50:51.875Z,28.70
2022-08-25T13:53:26.255Z,28.70
2022-08-25T13:55:57.411Z,28.70
2022-08-25T13:58:44.786Z,28.60
2022-08-25T14:01:47.085Z,28.50
2022-08-25T14:04:27.343Z,28.30
2022-08-25T14:07:21.030Z,28.30
2022-08-25T14:10:00.262Z,28.20
2022-08-25T14:12:33.247Z,28.10
2022-08-25T14:15:05.221Z,28.00
2022-08-25T14:17:39.050Z,28.00
2022-08-25T14:20:29.225Z,27.60
2022-08-25T14:23:00.354Z,27.20
2022-08-25T14:25:30.362Z,27.20
2022-08-25T14:28:10.747Z,27.30
2022-08-25T14:30:46.502Z,27.20
2022-08-25T14:33:14.579Z,27.10
2022-08-25T14:35:45.565Z,27.10
2022-08-25T14:38:15.193Z,27.10
2022-08-25T14:40:44.688Z,27.20
2022-08-25T14:43:12.345Z,27.10
2022-08-25T14:45:42.982Z,27.30
2022-08-25T14:48:15.818Z,27.30
2022-08-25T14:50:42.714Z,27.40
2022-08-25T14:53:11.775Z,27.30
2022-08-25T14:55:38.945Z,27.20
2022-08-25T14:58:06.978Z,27.20
2022-08-25T15:00:37.340Z,27.30
2022-08-25T15:03:04.774Z,27.30
2022-08-25T15:05:32.050Z,27.20
2022-08-25T15:08:17.480Z,27.20
2022-08-25T15:10:44.519Z,27.20
2022-08-25T15:13:11.398Z,27.10
2022-08-25T15:15:52.479Z,27.20
2022-08-25T15:18:21.612Z,27.20
2022-08-25T15:20:49.992Z,27.10
2022-08-25T15:23:18.467Z,27.20
2022-08-25T15:25:47.481Z,27.10
2022-08-25T15:28:17.378Z,27.20
2022-08-25T15:30:45.746Z,27.20
2022-08-25T15:33:13.784Z,27.20
2022-08-25T15:35:41.429Z,27.20
2022-08-25T15:38:08.616Z,27.20
2022-08-25T15:40:39.044Z,27.10
2022-08-25T15:43:06.853Z,27.10
2022-08-25T15:45:36.396Z,26.90
2022-08-25T15:48:06.757Z,26.90
2022-08-25T15:50:36.601Z,27.10
2022-08-25T15:53:03.814Z,27.50
2022-08-25T15:55:39.138Z,27.90
2022-08-25T15:58:08.909Z,28.40
2022-08-25T16:00:37.767Z,28.80
2022-08-25T16:03:07.030Z,29.00
2022-08-25T16:05:37.631Z,29.30
2022-08-25T16:08:05.623Z,29.70
2022-08-25T16:10:39.651Z,29.70
2022-08-25T16:13:08.030Z,30.00
2022-08-25T16:15:36.110Z,30.30
2022-08-25T16:18:04.775Z,30.60
2022-08-25T16:20:34.551Z,30.80
2022-08-25T16:23:03.922Z,31.10
2022-08-25T16:25:31.697Z,31.30
2022-08-25T16:27:58.555Z,31.50
2022-08-25T16:30:27.426Z,31.70
2022-08-25T16:32:54.851Z,32.00
2022-08-25T16:35:23.685Z,32.20
2022-08-25T16:37:50.647Z,32.20
2022-08-25T16:40:20.149Z,32.10
2022-08-25T16:42:48.542Z,32.10
2022-08-25T16:45:15.679Z,32.50
2022-08-25T16:47:43.373Z,32.50
2022-08-25T16:50:11.169Z,32.10
2022-08-25T16:52:58.105Z,31.70
2022-08-25T16:55:26.325Z,31.10
2022-08-25T16:57:54.454Z,30.80
2022-08-25T17:00:24.932Z,30.50
2022-08-25T17:02:59.302Z,30.10
2022-08-25T17:05:28.750Z,30.40
2022-08-25T17:08:15.476Z,29.90
2022-08-25T17:10:43.641Z,28.90
2022-08-25T17:13:11.438Z,27.60
2022-08-25T17:15:46.957Z,26.90
2022-08-25T17:18:13.987Z,26.00
2022-08-25T17:20:44.626Z,25.20
2022-08-25T17:23:12.943Z,24.70
2022-08-25T17:25:43.243Z,24.20
2022-08-25T17:28:12.791Z,23.80
2022-08-25T17:30:40.694Z,23.50
2022-08-25T17:33:08.163Z,23.20
2022-08-25T17:35:47.161Z,22.90
2022-08-25T17:38:25.913Z,22.80
2022-08-25T17:40:55.110Z,22.60
2022-08-25T17:43:24.071Z,22.40
2022-08-25T17:45:52.459Z,22.20
2022-08-25T17:48:20.291Z,22.00
2022-08-25T17:50:47.496Z,21.90
2022-08-25T17:53:14.471Z,21.80
2022-08-25T17:55:44.403Z,21.70
2022-08-25T17:58:15.535Z,21.70
2022-08-25T18:00:45.569Z,21.60
2022-08-25T18:03:12.887Z,21.60
2022-08-25T18:05:40.664Z,21.50
2022-08-25T18:08:10.334Z,21.50
2022-08-25T18:10:38.243Z,21.60
2022-08-25T18:13:05.460Z,21.60
2022-08-25T18:15:33.514Z,21.60
2022-08-25T18:18:01.844Z,21.60
2022-08-25T18:20:31.659Z,21.60
2022-08-25T18:22:58.909Z,21.50
2022-08-25T18:25:26.899Z,21.50
2022-08-25T18:27:55.338Z,21.40
2022-08-25T18:30:23.174Z,21.30
2022-08-25T18:32:53.161Z,21.30
2022-08-25T18:35:22.139Z,21.30
2022-08-25T18:38:12.457Z,21.30
2022-08-25T18:40:40.002Z,21.20
2022-08-25T18:43:09.450Z,21.10
2022-08-25T18:45:43.563Z,21.00
2022-08-25T18:48:11.194Z,21.10
2022-08-25T18:50:43.343Z,21.10
2022-08-25T18:53:11.487Z,21.10
2022-08-25T18:55:39.966Z,21.20
2022-08-25T18:58:08.111Z,21.10
2022-08-25T19:00:37.119Z,21.00
2022-08-25T19:03:04.962Z,20.90
2022-08-25T19:05:34.473Z,20.80
2022-08-25T19:08:03.647Z,20.60
2022-08-25T19:10:31.226Z,20.50
2022-08-25T19:12:59.185Z,20.40
2022-08-25T19:15:35.631Z,20.30
2022-08-25T19:18:04.946Z,20.30
2022-08-25T19:20:34.734Z,20.30
2022-08-25T19:23:02.157Z,20.30
2022-08-25T19:25:33.056Z,20.30
2022-08-25T19:28:01.080Z,20.30
2022-08-25T19:30:29.749Z,20.30
2022-08-25T19:32:57.591Z,20.10
2022-08-25T19:35:37.650Z,20.00
2022-08-25T19:38:33.349Z,20.00
2022-08-25T19:40:55.375Z,19.90
2022-08-25T19:43:22.283Z,19.80
2022-08-25T19:45:51.178Z,19.70
2022-08-25T19:48:18.626Z,19.70
2022-08-25T19:50:46.029Z,19.70
2022-08-25T19:53:13.019Z,19.70
2022-08-25T19:55:42.764Z,19.60
2022-08-25T19:58:11.501Z,19.60
2022-08-25T20:00:40.245Z,19.60
2022-08-25T20:03:08.137Z,19.60
2022-08-25T20:05:36.918Z,19.50
2022-08-25T20:08:05.789Z,19.50
2022-08-25T20:10:39.492Z,19.50
2022-08-25T20:13:09.330Z,19.40
2022-08-25T20:15:37.198Z,19.40
2022-08-25T20:18:08.166Z,19.30
2022-08-25T20:20:35.641Z,19.20
2022-08-25T20:23:22.820Z,19.20
2022-08-25T20:25:50.195Z,19.20
2022-08-25T20:28:18.784Z,19.10
2022-08-25T20:30:46.635Z,19.10
2022-08-25T20:33:13.697Z,19.00
2022-08-25T20:35:49.874Z,19.00
2022-08-25T20:38:20.195Z,19.00
2022-08-25T20:40:47.183Z,18.90
2022-08-25T20:43:15.702Z,19.00
2022-08-25T20:45:42.764Z,19.00
2022-08-25T20:48:09.998Z,19.00
2022-08-25T20:50:38.789Z,18.90
2022-08-25T20:53:10.094Z,18.90
2022-08-25T20:55:43.743Z,18.80
2022-08-25T20:58:11.275Z,18.90
2022-08-25T21:00:45.603Z,18.90
2022-08-25T21:03:12.686Z,18.80
2022-08-25T21:05:41.434Z,18.70
2022-08-25T21:08:08.846Z,18.60
2022-08-25T21:10:37.834Z,18.50
2022-08-25T21:13:04.841Z,18.50
2022-08-25T21:15:31.725Z,18.40
2022-08-25T21:17:59.029Z,18.30
2022-08-25T21:20:27.038Z,18.20
2022-08-25T21:22:54.446Z,18.20
2022-08-25T21:25:21.856Z,18.20
2022-08-25T21:27:49.231Z,18.10
2022-08-25T21:30:16.348Z,18.10
2022-08-25T21:32:53.470Z,18.00
2022-08-25T21:35:22.469Z,17.90
2022-08-25T21:37:53.113Z,17.80
2022-08-25T21:40:23.047Z,17.80
2022-08-25T21:42:50.617Z,17.70
2022-08-25T21:45:20.838Z,17.70
2022-08-25T21:47:48.791Z,17.70
2022-08-25T21:50:15.701Z,17.60
2022-08-25T21:52:42.583Z,17.60
2022-08-25T21:55:15.685Z,17.60
2022-08-25T21:57:43.844Z,17.60
2022-08-25T22:00:13.329Z,17.60
2022-08-25T22:02:40.273Z,17.50
2022-08-25T22:05:11.601Z,17.50
2022-08-25T22:07:44.000Z,17.40
2022-08-25T22:10:17.571Z,17.40
2022-08-25T22:12:46.453Z,17.30
2022-08-25T22:15:15.570Z,17.20
2022-08-25T22:17:42.500Z,17.20
2022-08-25T22:20:10.444Z,17.20
2022-08-25T22:22:37.349Z,17.10
2022-08-25T22:25:05.300Z,17.10
2022-08-25T22:27:32.944Z,17.00
2022-08-25T22:30:01.009Z,17.10
2022-08-25T22:32:27.905Z,17.00
2022-08-25T22:34:54.811Z,17.00
2022-08-25T22:37:22.406Z,17.00
2022-08-25T22:39:49.668Z,17.00
2022-08-25T22:42:17.250Z,16.90
2022-08-25T22:44:44.426Z,16.90
2022-08-25T22:47:11.859Z,16.90
2022-08-25T22:49:40.249Z,16.90
2022-08-25T22:52:09.412Z,16.90
2022-08-25T22:54:39.619Z,16.90
2022-08-25T22:57:06.991Z,16.90
2022-08-25T22:59:34.206Z,16.80
2022-08-25T23:02:01.178Z,16.80
2022-08-25T23:04:28.359Z,16.80
2022-08-25T23:06:55.301Z,16.80
2022-08-25T23:09:24.836Z,16.80
2022-08-25T23:11:52.131Z,16.90
2022-08-25T23:14:20.078Z,16.80
2022-08-25T23:16:49.968Z,16.80
2022-08-25T23:19:17.658Z,16.80
2022-08-25T23:22:03.767Z,16.70
2022-08-25T23:24:31.678Z,16.70
2022-08-25T23:27:00.755Z,16.70
2022-08-25T23:29:28.151Z,16.60
2022-08-25T23:31:56.241Z,16.60
2022-08-25T23:34:23.794Z,16.50
2022-08-25T23:36:50.765Z,16.50
2022-08-25T23:39:18.176Z,16.50
2022-08-25T23:41:45.271Z,16.50
2022-08-25T23:44:17.313Z,16.40
2022-08-25T23:46:45.141Z,16.40
2022-08-25T23:49:12.460Z,16.40
2022-08-25T23:51:41.213Z,16.40
2022-08-25T23:54:10.946Z,16.40
2022-08-25T23:56:42.308Z,16.40
2022-08-25T23:59:19.528Z,16.50
